Decoded Metar for KWVI (WATSONVILLE in CA, USA) (IATA:WVI) | Meteo·Mobile Aviation Weather
aviador You're here:

KWVI Decoded Metar

WATSONVILLE in CA, USA
Report Time2018-08-15 23:53:00
UTC Time2018-08-16 00:46:34
Flight Rules vfr VFR
Wind190° at 07 kt
W.Decomp.*RWY 20: 6.4 kt HW 2.8 kt LCW
RWY 09: 0.5 kt HW 7.0 kt RCW
W.Rank190° ranks 5
Current wind is above 190° avg. (6.4)
Visibility9999 m
Phenomena:N/A
Clouds:N/A
Expected CloudBase > 4,000 ft AGL from Temp-Dew spread
CeilingNone
Temp23°C (ISA +8)
Dew Point13°C (53% RH)
AAT21.4°C
QNH1014 hPa
Density Alt1,273 ft
Elevation141 ft
Report Wrong Elevation
Raw Report
KWVI 152353Z AUTO 19007KT 10SM 23/13 A2993 RMK AO2 SLP134
T02330133 10239 20206 $=

Extra information for KWVI:More info

Metar Taf Metar & Taf Last 4 Metars F.Rules Stats Wind Profile Meteogram Temp Stats Airport Information Weather charts Add Link Nearby VenuesMetar ALERT Operation Metar Decoded Social comments

AIRNAV info for KWVI